createdAt,value
2022-12-02T00:01:46.417Z,47.03
2022-12-02T00:04:20.209Z,55.53
2022-12-02T00:06:48.003Z,54.70
2022-12-02T00:09:20.400Z,51.63
2022-12-02T00:11:48.574Z,50.37
2022-12-02T00:14:22.172Z,55.97
2022-12-02T00:16:49.915Z,62.93
2022-12-02T00:19:17.562Z,49.33
2022-12-02T00:21:45.364Z,49.50
2022-12-02T00:24:12.777Z,59.87
2022-12-02T00:26:40.308Z,43.20
2022-12-02T00:29:07.824Z,49.43
2022-12-02T00:31:35.673Z,49.77
2022-12-02T00:34:03.638Z,45.93
2022-12-02T00:36:31.527Z,42.83
2022-12-02T00:38:59.040Z,48.83
2022-12-02T00:41:26.474Z,50.50
2022-12-02T00:43:53.922Z,61.23
2022-12-02T00:46:21.438Z,49.37
2022-12-02T00:48:48.886Z,61.70
2022-12-02T00:51:16.398Z,46.83
2022-12-02T00:53:43.844Z,62.40
2022-12-02T00:56:11.345Z,64.30
2022-12-02T00:58:38.807Z,68.87
2022-12-02T01:01:06.389Z,72.93
2022-12-02T01:03:33.874Z,63.40
2022-12-02T01:06:01.418Z,78.87
2022-12-02T01:08:28.840Z,67.87
2022-12-02T01:10:56.825Z,63.60
2022-12-02T01:13:25.841Z,55.93
2022-12-02T01:15:53.302Z,72.53
2022-12-02T01:18:20.742Z,64.70
2022-12-02T01:20:48.133Z,61.13
2022-12-02T01:23:15.764Z,68.60
2022-12-02T01:25:43.238Z,77.27
2022-12-02T01:28:10.788Z,75.70
2022-12-02T01:30:38.238Z,52.67
2022-12-02T01:33:05.681Z,67.50
2022-12-02T01:35:33.228Z,69.13
2022-12-02T01:38:00.712Z,59.40
2022-12-02T01:40:29.099Z,74.80
2022-12-02T01:42:56.654Z,68.83
2022-12-02T01:45:24.535Z,76.43
2022-12-02T01:47:52.122Z,58.93
2022-12-02T01:50:19.788Z,53.00
2022-12-02T01:52:47.314Z,69.87
2022-12-02T01:55:16.632Z,61.13
2022-12-02T01:57:44.169Z,71.93
2022-12-02T02:00:11.975Z,59.87
2022-12-02T02:02:40.187Z,66.93
2022-12-02T02:05:10.103Z,54.73
2022-12-02T02:07:38.760Z,49.97
2022-12-02T02:10:06.824Z,54.50
2022-12-02T02:12:35.715Z,68.00
2022-12-02T02:15:07.353Z,78.43
2022-12-02T02:17:35.130Z,68.07
2022-12-02T02:20:04.523Z,40.73
2022-12-02T02:22:37.281Z,60.17
2022-12-02T02:25:08.985Z,66.43
2022-12-02T02:27:36.425Z,69.37
2022-12-02T02:30:04.412Z,69.40
2022-12-02T02:32:32.014Z,70.30
2022-12-02T02:34:59.517Z,57.87
2022-12-02T02:37:27.021Z,59.73
2022-12-02T02:39:54.491Z,75.10
2022-12-02T02:42:22.068Z,64.40
2022-12-02T02:44:49.852Z,56.93
2022-12-02T02:47:17.474Z,71.87
2022-12-02T02:49:44.966Z,60.80
2022-12-02T02:52:12.442Z,53.63
2022-12-02T02:54:39.940Z,57.27
2022-12-02T02:57:09.121Z,42.60
2022-12-02T02:59:37.964Z,49.23
2022-12-02T03:02:09.140Z,56.30
2022-12-02T03:04:36.693Z,44.03
2022-12-02T03:07:04.241Z,60.07
2022-12-02T03:09:31.822Z,57.00
2022-12-02T03:11:59.392Z,57.40
2022-12-02T03:14:27.223Z,40.00
2022-12-02T03:16:55.222Z,39.97
2022-12-02T03:19:23.109Z,47.03
2022-12-02T03:21:50.659Z,35.30
2022-12-02T03:24:18.381Z,53.67
2022-12-02T03:26:46.144Z,48.13
2022-12-02T03:29:14.253Z,39.13
2022-12-02T03:31:42.322Z,43.67
2022-12-02T03:34:10.113Z,35.50
2022-12-02T03:36:37.757Z,33.63
2022-12-02T03:39:05.540Z,51.50
2022-12-02T03:41:33.141Z,51.07
2022-12-02T03:44:00.743Z,50.53
2022-12-02T03:46:29.342Z,32.57
2022-12-02T03:48:57.400Z,46.53
2022-12-02T03:51:24.934Z,45.27
2022-12-02T03:53:53.178Z,45.33
2022-12-02T03:56:20.709Z,51.13
2022-12-02T03:58:50.313Z,46.67
2022-12-02T04:01:18.390Z,52.17
2022-12-02T04:03:45.810Z,49.23
2022-12-02T04:06:13.673Z,53.90
2022-12-02T04:08:41.573Z,50.27
2022-12-02T04:11:09.104Z,46.33
2022-12-02T04:13:36.524Z,48.33
2022-12-02T04:16:04.207Z,45.43
2022-12-02T04:18:31.685Z,52.10
2022-12-02T04:20:59.137Z,43.03
2022-12-02T04:23:26.580Z,43.90
2022-12-02T04:25:54.092Z,49.33
2022-12-02T04:28:21.501Z,39.57
2022-12-02T04:30:49.008Z,51.33
2022-12-02T04:33:16.482Z,50.80
2022-12-02T04:35:43.939Z,51.97
2022-12-02T04:38:12.480Z,45.70
2022-12-02T04:40:40.359Z,43.23
2022-12-02T04:43:07.815Z,36.23
2022-12-02T04:45:35.352Z,56.47
2022-12-02T04:48:02.801Z,41.57
2022-12-02T04:50:30.252Z,57.73
2022-12-02T04:52:57.817Z,48.77
2022-12-02T04:55:25.234Z,51.33
2022-12-02T04:57:52.656Z,49.63
2022-12-02T05:00:20.367Z,46.80
2022-12-02T05:02:47.889Z,39.77
2022-12-02T05:05:15.397Z,48.90
2022-12-02T05:07:42.908Z,42.57
2022-12-02T05:10:10.617Z,46.47
2022-12-02T05:12:38.220Z,35.77
2022-12-02T05:15:05.904Z,43.77
2022-12-02T05:17:35.938Z,47.93
2022-12-02T05:20:05.650Z,51.80
2022-12-02T05:22:33.069Z,47.97
2022-12-02T05:25:00.509Z,36.07
2022-12-02T05:27:33.732Z,57.70
2022-12-02T05:30:02.930Z,57.57
2022-12-02T05:32:30.367Z,54.27
2022-12-02T05:34:57.831Z,53.23
2022-12-02T05:37:25.343Z,38.47
2022-12-02T05:39:53.044Z,47.13
2022-12-02T05:42:20.471Z,50.17
2022-12-02T05:44:47.868Z,38.97
2022-12-02T05:47:16.522Z,39.03
2022-12-02T05:49:44.802Z,53.27
2022-12-02T05:52:25.665Z,47.33
2022-12-02T05:54:54.960Z,41.47
2022-12-02T05:57:28.401Z,54.80
2022-12-02T05:59:58.038Z,41.27
2022-12-02T06:02:40.634Z,45.87
2022-12-02T06:05:20.778Z,41.80
2022-12-02T06:07:49.037Z,42.13
2022-12-02T06:10:19.566Z,30.87
2022-12-02T06:12:47.025Z,34.43
2022-12-02T06:15:15.014Z,67.43
2022-12-02T06:17:42.601Z,49.43
2022-12-02T06:20:21.838Z,37.20
2022-12-02T06:22:49.526Z,53.60
2022-12-02T06:25:23.218Z,37.50
2022-12-02T06:27:50.795Z,35.80
2022-12-02T06:30:18.348Z,47.53
2022-12-02T06:32:51.052Z,36.63
2022-12-02T06:35:23.754Z,54.50
2022-12-02T06:37:52.152Z,51.33
2022-12-02T06:40:29.331Z,56.77
2022-12-02T06:42:58.500Z,51.80
2022-12-02T06:45:30.806Z,54.50
2022-12-02T06:48:03.120Z,36.30
2022-12-02T06:50:40.517Z,59.37
2022-12-02T06:53:24.999Z,55.30
2022-12-02T06:55:57.712Z,41.97
2022-12-02T06:58:25.196Z,36.83
2022-12-02T07:00:52.874Z,44.83
2022-12-02T07:03:41.729Z,41.50
2022-12-02T07:06:25.869Z,26.20
2022-12-02T07:08:56.137Z,37.20
2022-12-02T07:11:31.631Z,38.47
2022-12-02T07:13:59.488Z,31.63
2022-12-02T07:16:36.967Z,35.27
2022-12-02T07:19:07.323Z,38.70
2022-12-02T07:21:34.849Z,39.97
2022-12-02T07:24:02.378Z,37.37
2022-12-02T07:26:29.885Z,34.13
2022-12-02T07:29:15.019Z,32.97
2022-12-02T07:31:43.818Z,39.17
2022-12-02T07:34:12.167Z,49.53
2022-12-02T07:36:39.996Z,36.73
2022-12-02T07:39:07.615Z,41.93
2022-12-02T07:41:37.292Z,47.50
2022-12-02T07:44:05.552Z,52.90
2022-12-02T07:46:33.367Z,47.17
2022-12-02T07:49:00.879Z,31.93
2022-12-02T07:51:28.372Z,44.90
2022-12-02T07:53:55.908Z,44.07
2022-12-02T07:56:23.440Z,41.87
2022-12-02T08:01:38.462Z,73.03
2022-12-02T08:04:05.990Z,47.70
2022-12-02T08:06:38.962Z,59.73
2022-12-02T08:09:07.327Z,53.17
2022-12-02T08:11:34.807Z,44.57
2022-12-02T08:14:02.307Z,51.20
2022-12-02T08:16:29.820Z,55.53
2022-12-02T08:18:57.449Z,59.40
2022-12-02T08:21:24.867Z,77.20
2022-12-02T08:23:52.407Z,71.03
2022-12-02T08:26:19.923Z,69.17
2022-12-02T08:28:53.704Z,55.27
2022-12-02T08:31:22.020Z,67.57
2022-12-02T08:33:49.972Z,65.70
2022-12-02T08:36:17.549Z,42.80
2022-12-02T08:38:45.528Z,61.90
2022-12-02T08:41:14.176Z,47.97
2022-12-02T08:43:41.982Z,55.20
2022-12-02T08:46:09.955Z,59.93
2022-12-02T08:48:37.684Z,60.53
2022-12-02T08:51:05.503Z,67.03
2022-12-02T08:53:32.958Z,59.10
2022-12-02T08:56:00.485Z,48.30
2022-12-02T08:58:27.996Z,42.17
2022-12-02T09:00:55.496Z,80.07
2022-12-02T09:03:22.989Z,62.23
2022-12-02T09:05:50.540Z,58.77
2022-12-02T09:08:18.045Z,41.03
2022-12-02T09:10:45.642Z,54.93
2022-12-02T09:13:13.198Z,61.87
2022-12-02T09:15:40.727Z,57.40
2022-12-02T09:18:12.726Z,53.00
2022-12-02T09:20:41.893Z,48.23
2022-12-02T09:23:09.463Z,61.30
2022-12-02T09:25:37.015Z,39.97
2022-12-02T09:28:04.505Z,45.10
2022-12-02T09:30:32.014Z,56.00
2022-12-02T09:32:59.488Z,46.00
2022-12-02T09:35:26.983Z,49.50
2022-12-02T09:37:54.658Z,50.87
2022-12-02T09:40:22.200Z,43.83
2022-12-02T09:42:50.248Z,52.87
2022-12-02T09:45:17.723Z,42.90
2022-12-02T09:47:45.189Z,53.57
2022-12-02T09:50:14.783Z,49.40
2022-12-02T09:52:42.310Z,46.70
2022-12-02T09:55:17.259Z,49.77
2022-12-02T09:57:45.200Z,43.33
2022-12-02T10:00:17.202Z,43.53
2022-12-02T10:02:46.017Z,46.83
2022-12-02T10:05:13.489Z,38.17
2022-12-02T10:07:41.137Z,46.77
2022-12-02T10:10:11.478Z,39.50
2022-12-02T10:12:39.000Z,37.43
2022-12-02T10:15:06.847Z,43.23
2022-12-02T10:17:34.307Z,43.60
2022-12-02T10:20:01.783Z,43.40
2022-12-02T10:22:29.307Z,37.10
2022-12-02T10:24:56.711Z,30.63
2022-12-02T10:27:29.178Z,49.10
2022-12-02T10:30:16.972Z,37.37
2022-12-02T10:32:54.789Z,35.60
2022-12-02T10:35:22.384Z,29.17
2022-12-02T10:37:49.796Z,41.37
2022-12-02T10:40:18.952Z,35.07
2022-12-02T10:42:46.720Z,41.57
2022-12-02T10:45:21.491Z,42.70
2022-12-02T10:47:49.560Z,32.57
2022-12-02T10:50:18.677Z,37.83
2022-12-02T10:52:47.605Z,32.37
2022-12-02T10:55:15.198Z,45.30
2022-12-02T10:57:43.861Z,39.20
2022-12-02T11:00:16.173Z,36.40
2022-12-02T11:02:45.127Z,39.20
2022-12-02T11:05:25.947Z,37.23
2022-12-02T11:08:04.437Z,35.00
2022-12-02T11:10:39.895Z,34.73
2022-12-02T11:13:07.486Z,40.13
2022-12-02T11:15:34.950Z,40.40
2022-12-02T11:18:02.744Z,34.50
2022-12-02T11:20:33.280Z,35.37
2022-12-02T11:23:00.720Z,42.40
2022-12-02T11:25:43.325Z,31.63
2022-12-02T11:28:13.640Z,38.53
2022-12-02T11:30:41.184Z,38.80
2022-12-02T11:33:12.162Z,41.57
2022-12-02T11:35:58.480Z,45.10
2022-12-02T11:38:26.628Z,32.90
2022-12-02T11:40:54.061Z,34.50
2022-12-02T11:43:48.004Z,44.13
2022-12-02T11:46:20.668Z,35.97
2022-12-02T11:48:55.908Z,39.63
2022-12-02T11:51:29.240Z,44.30
2022-12-02T11:53:56.709Z,35.40
2022-12-02T11:56:27.620Z,36.87
2022-12-02T11:58:55.129Z,31.57
2022-12-02T12:01:22.583Z,38.97
2022-12-02T12:03:51.378Z,45.90
2022-12-02T12:06:19.896Z,32.40
2022-12-02T12:08:51.240Z,41.27
2022-12-02T12:11:18.659Z,29.50
2022-12-02T12:14:05.008Z,32.23
2022-12-02T12:16:52.823Z,46.83
2022-12-02T12:19:20.336Z,43.23
2022-12-02T12:21:48.675Z,49.17
2022-12-02T12:24:18.957Z,49.47
2022-12-02T12:26:53.991Z,34.83
2022-12-02T12:29:22.369Z,47.53
2022-12-02T12:31:49.987Z,46.83
2022-12-02T12:34:17.566Z,42.47
2022-12-02T12:36:45.880Z,41.60
2022-12-02T12:39:13.855Z,46.17
2022-12-02T12:44:31.120Z,43.10
2022-12-02T12:47:00.277Z,49.73
2022-12-02T12:49:28.228Z,47.13
2022-12-02T12:51:55.723Z,45.67
2022-12-02T12:54:23.165Z,36.97
2022-12-02T12:56:50.655Z,40.03
2022-12-02T12:59:18.153Z,50.40
2022-12-02T13:01:45.734Z,56.77
2022-12-02T13:04:13.341Z,37.80
2022-12-02T13:06:42.764Z,41.73
2022-12-02T13:09:10.880Z,53.10
2022-12-02T13:11:38.638Z,40.63
2022-12-02T13:14:09.195Z,42.60
2022-12-02T13:16:36.943Z,46.23
2022-12-02T13:19:04.496Z,44.67
2022-12-02T13:21:32.061Z,54.37
2022-12-02T13:23:59.492Z,47.03
2022-12-02T13:26:26.988Z,51.87
2022-12-02T13:28:54.452Z,39.77
2022-12-02T13:31:21.997Z,45.57
2022-12-02T13:33:49.706Z,45.20
2022-12-02T13:36:17.280Z,44.17
2022-12-02T13:38:44.767Z,42.33
2022-12-02T13:41:12.304Z,46.57
2022-12-02T13:43:39.754Z,47.77
2022-12-02T13:46:07.356Z,41.70
2022-12-02T13:48:34.835Z,47.07
2022-12-02T13:51:02.322Z,41.60
2022-12-02T13:53:29.860Z,49.73
2022-12-02T13:55:57.351Z,38.30
2022-12-02T13:58:24.787Z,48.47
2022-12-02T14:00:52.298Z,52.87
2022-12-02T14:03:19.864Z,35.10
2022-12-02T14:05:47.324Z,45.63
2022-12-02T14:08:14.786Z,46.67
2022-12-02T14:10:42.347Z,46.40
2022-12-02T14:13:15.850Z,48.67
2022-12-02T14:15:45.937Z,57.17
2022-12-02T14:18:13.509Z,39.47
2022-12-02T14:20:40.993Z,37.37
2022-12-02T14:23:08.486Z,51.70
2022-12-02T14:25:35.986Z,41.53
2022-12-02T14:28:03.471Z,39.50
2022-12-02T14:30:31.016Z,50.03
2022-12-02T14:32:58.532Z,43.73
2022-12-02T14:35:25.982Z,41.67
2022-12-02T14:37:53.443Z,51.50
2022-12-02T14:40:20.898Z,48.60
2022-12-02T14:42:48.342Z,49.73
2022-12-02T14:45:15.909Z,39.03
2022-12-02T14:47:43.341Z,44.80
2022-12-02T14:50:10.893Z,48.67
2022-12-02T14:52:38.425Z,35.67
2022-12-02T14:55:06.097Z,37.17
2022-12-02T14:57:33.577Z,41.17
2022-12-02T15:00:01.056Z,43.03
2022-12-02T15:02:28.557Z,45.77
2022-12-02T15:04:56.039Z,46.17
2022-12-02T15:07:23.601Z,41.27
2022-12-02T15:09:51.148Z,50.43
2022-12-02T15:12:18.635Z,39.23
2022-12-02T15:14:49.751Z,46.83
2022-12-02T15:17:17.429Z,40.60
2022-12-02T15:19:44.914Z,39.13
2022-12-02T15:22:12.395Z,38.00
2022-12-02T15:24:39.851Z,43.00
2022-12-02T15:27:07.347Z,40.63
2022-12-02T15:29:35.093Z,43.77
2022-12-02T15:32:02.651Z,42.03
2022-12-02T15:34:30.134Z,45.10
2022-12-02T15:36:57.610Z,43.50
2022-12-02T15:39:25.096Z,42.67
2022-12-02T15:41:52.543Z,37.13
2022-12-02T15:44:20.049Z,38.37
2022-12-02T15:46:47.545Z,40.07
2022-12-02T15:49:15.120Z,38.33
2022-12-02T15:51:42.581Z,36.27
2022-12-02T15:54:10.088Z,42.60
2022-12-02T15:56:37.559Z,36.00
2022-12-02T15:59:05.357Z,38.63
2022-12-02T16:01:32.887Z,32.10
2022-12-02T16:04:00.499Z,32.67
2022-12-02T16:06:27.966Z,34.47
2022-12-02T16:08:56.074Z,34.03
2022-12-02T16:11:23.805Z,45.10
2022-12-02T16:13:51.310Z,34.23
2022-12-02T16:16:19.085Z,39.97
2022-12-02T16:18:46.565Z,31.83
2022-12-02T16:21:14.052Z,34.10
2022-12-02T16:23:41.487Z,36.13
2022-12-02T16:26:09.069Z,27.73
2022-12-02T16:28:36.653Z,23.37
2022-12-02T16:31:04.120Z,32.37
2022-12-02T16:33:31.598Z,21.37
2022-12-02T16:35:59.088Z,28.90
2022-12-02T16:38:26.674Z,31.50
2022-12-02T16:40:54.218Z,33.83
2022-12-02T16:43:21.728Z,33.83
2022-12-02T16:45:49.212Z,32.27
2022-12-02T16:48:16.714Z,25.93
2022-12-02T16:50:44.179Z,27.90
2022-12-02T16:53:11.703Z,26.27
2022-12-02T16:55:39.186Z,28.70
2022-12-02T16:58:06.663Z,28.23
2022-12-02T17:00:34.135Z,37.33
2022-12-02T17:03:01.652Z,31.93
2022-12-02T17:05:29.162Z,35.70
2022-12-02T17:07:56.781Z,25.73
2022-12-02T17:10:24.226Z,29.73
2022-12-02T17:12:51.763Z,30.30
2022-12-02T17:15:19.217Z,33.73
2022-12-02T17:17:47.243Z,30.87
2022-12-02T17:20:15.339Z,28.23
2022-12-02T17:22:42.852Z,32.50
2022-12-02T17:25:10.573Z,36.53
2022-12-02T17:27:38.058Z,40.43
2022-12-02T17:30:06.104Z,24.90
2022-12-02T17:32:36.635Z,34.13
2022-12-02T17:35:04.148Z,28.63
2022-12-02T17:37:31.652Z,29.53
2022-12-02T17:39:59.185Z,30.40
2022-12-02T17:42:26.656Z,28.00
2022-12-02T17:44:54.567Z,28.70
2022-12-02T17:47:22.419Z,26.03
2022-12-02T17:49:49.887Z,35.70
2022-12-02T17:52:20.129Z,29.90
2022-12-02T17:54:48.159Z,32.40
2022-12-02T17:57:15.630Z,25.70
2022-12-02T17:59:43.191Z,32.50
2022-12-02T18:02:11.045Z,26.57
2022-12-02T18:04:38.767Z,23.57
2022-12-02T18:07:09.883Z,34.07
2022-12-02T18:09:38.539Z,36.90
2022-12-02T18:12:06.863Z,33.13
2022-12-02T18:14:34.587Z,33.83
2022-12-02T18:17:02.182Z,25.17
2022-12-02T18:19:29.791Z,32.90
2022-12-02T18:21:57.219Z,29.27
2022-12-02T18:24:24.650Z,34.10
2022-12-02T18:26:52.173Z,31.80
2022-12-02T18:29:19.658Z,30.40
2022-12-02T18:31:47.144Z,34.70
2022-12-02T18:34:14.622Z,36.30
2022-12-02T18:36:42.089Z,36.33
2022-12-02T18:39:09.659Z,31.83
2022-12-02T18:41:37.121Z,35.97
2022-12-02T18:44:04.634Z,27.07
2022-12-02T18:46:32.185Z,27.60
2022-12-02T18:48:59.786Z,31.87
2022-12-02T18:51:27.289Z,27.00
2022-12-02T18:53:54.770Z,28.37
2022-12-02T18:56:24.286Z,29.63
2022-12-02T18:58:52.461Z,26.90
2022-12-02T19:01:20.109Z,31.00
2022-12-02T19:03:47.609Z,31.63
2022-12-02T19:06:15.090Z,39.83
2022-12-02T19:08:42.629Z,30.83
2022-12-02T19:11:10.144Z,27.77
2022-12-02T19:13:37.647Z,27.03
2022-12-02T19:16:05.342Z,33.17
2022-12-02T19:18:32.912Z,30.57
2022-12-02T19:21:00.599Z,32.57
2022-12-02T19:23:28.135Z,29.87
2022-12-02T19:25:55.591Z,40.43
2022-12-02T19:28:23.062Z,32.33
2022-12-02T19:30:50.555Z,27.90
2022-12-02T19:33:18.129Z,28.97
2022-12-02T19:35:45.628Z,35.87
2022-12-02T19:38:15.335Z,37.67
2022-12-02T19:40:45.601Z,37.97
2022-12-02T19:43:14.065Z,25.90
2022-12-02T19:45:41.887Z,36.70
2022-12-02T19:48:09.888Z,38.30
2022-12-02T19:50:37.435Z,33.53
2022-12-02T19:53:04.900Z,31.50
2022-12-02T19:55:32.378Z,23.43
2022-12-02T19:57:59.948Z,40.63
2022-12-02T20:00:27.430Z,38.87
2022-12-02T20:02:55.006Z,27.77
2022-12-02T20:05:22.544Z,31.83
2022-12-02T20:07:50.495Z,36.90
2022-12-02T20:10:18.472Z,33.33
2022-12-02T20:12:46.350Z,34.50
2022-12-02T20:15:14.443Z,35.33
2022-12-02T20:17:41.961Z,28.17
2022-12-02T20:20:11.533Z,30.37
2022-12-02T20:22:39.243Z,30.50
2022-12-02T20:25:07.015Z,37.20
2022-12-02T20:27:34.588Z,30.57
2022-12-02T20:30:02.075Z,32.43
2022-12-02T20:32:29.535Z,21.93
2022-12-02T20:34:56.973Z,25.97
2022-12-02T20:37:24.464Z,28.97
2022-12-02T20:39:51.977Z,28.77
2022-12-02T20:42:19.452Z,34.03
2022-12-02T20:44:52.028Z,31.57
2022-12-02T20:47:20.081Z,29.60
2022-12-02T20:49:47.708Z,28.13
2022-12-02T20:52:15.130Z,27.47
2022-12-02T20:54:42.613Z,26.57
2022-12-02T20:57:10.130Z,29.77
2022-12-02T20:59:37.839Z,27.43
2022-12-02T21:02:05.679Z,23.80
2022-12-02T21:04:33.249Z,27.50
2022-12-02T21:07:05.119Z,21.70
2022-12-02T21:09:35.390Z,22.80
2022-12-02T21:12:02.840Z,32.93
2022-12-02T21:14:30.482Z,28.07
2022-12-02T21:16:58.009Z,24.07
2022-12-02T21:19:25.473Z,27.53
2022-12-02T21:21:52.895Z,21.67
2022-12-02T21:24:20.370Z,22.07
2022-12-02T21:26:47.902Z,26.30
2022-12-02T21:29:15.435Z,28.17
2022-12-02T21:31:43.010Z,29.80
2022-12-02T21:34:10.678Z,30.00
2022-12-02T21:36:38.246Z,30.33
2022-12-02T21:39:05.768Z,28.30
2022-12-02T21:41:33.251Z,27.37
2022-12-02T21:44:00.906Z,22.03
2022-12-02T21:46:28.550Z,29.60
2022-12-02T21:48:56.063Z,22.53
2022-12-02T21:51:23.584Z,26.30
2022-12-02T21:53:51.029Z,27.17
2022-12-02T21:56:18.511Z,23.60
2022-12-02T21:58:46.183Z,24.73
2022-12-02T22:01:13.843Z,23.17
2022-12-02T22:03:41.589Z,21.93
2022-12-02T22:06:09.070Z,18.17
2022-12-02T22:08:36.744Z,22.97
2022-12-02T22:11:04.221Z,24.33
2022-12-02T22:13:31.798Z,16.17
2022-12-02T22:15:59.309Z,24.83
2022-12-02T22:18:26.858Z,27.73
2022-12-02T22:20:54.340Z,18.47
2022-12-02T22:23:21.842Z,30.63
2022-12-02T22:25:49.328Z,23.07
2022-12-02T22:28:16.773Z,24.67
2022-12-02T22:30:44.240Z,26.33
2022-12-02T22:33:11.943Z,28.17
2022-12-02T22:35:39.392Z,20.00
2022-12-02T22:38:06.944Z,22.13
2022-12-02T22:40:34.496Z,20.00
2022-12-02T22:43:01.946Z,25.60
2022-12-02T22:45:29.455Z,22.23
2022-12-02T22:47:57.339Z,27.20
2022-12-02T22:50:24.784Z,21.50
2022-12-02T22:52:52.376Z,23.77
2022-12-02T22:55:19.874Z,25.77
2022-12-02T22:57:47.474Z,25.43
2022-12-02T23:00:15.569Z,18.03
2022-12-02T23:02:43.189Z,21.37
2022-12-02T23:05:11.227Z,24.33
2022-12-02T23:07:38.892Z,22.40
2022-12-02T23:10:06.859Z,21.83
2022-12-02T23:12:34.343Z,19.67
2022-12-02T23:15:28.333Z,21.33
2022-12-02T23:17:49.321Z,18.10
2022-12-02T23:20:16.775Z,22.13
2022-12-02T23:22:44.435Z,16.43
2022-12-02T23:25:11.903Z,19.90
2022-12-02T23:27:39.374Z,18.93
2022-12-02T23:30:07.416Z,20.10
2022-12-02T23:32:35.051Z,23.60
2022-12-02T23:35:02.600Z,21.50
2022-12-02T23:37:30.120Z,25.17
2022-12-02T23:39:57.572Z,16.23
2022-12-02T23:42:25.079Z,18.80
2022-12-02T23:44:52.802Z,22.20
2022-12-02T23:47:20.548Z,21.03
2022-12-02T23:49:48.027Z,22.10
2022-12-02T23:52:15.516Z,16.50
2022-12-02T23:54:43.029Z,18.70
2022-12-02T23:57:10.541Z,17.20
2022-12-02T23:59:38.097Z,13.33
